Wheatland, Oklahoma
Current Conditions -  °F | °C
As of 12:52 AM on Wednesday 22 Oct 2014 (Local Time) from KOKC Reporting Station
Clear Clear  
Wind Chill: 60°   Ceiling: Unl
Heat Index: 60°   Visibility: 10mi
Dew Point: 56°   Wind: 6mph
Humidity: 86%   Direction: 140°SE
Pressure: 30.06"   Gusts: NA
Location:  35.4°N, 97.65°W
Report Text: KOKC 220552Z 14005KT 10SM CLR 16/13 A3006 RMK AO2 SLP168 T01560133 10222 20156 402830150 58001
Loading
Personal Weather Stations






























Interactive Weather Map
Tropical Storm Tracking
New forecast layout! Learn more

10-Day Weather Forecast

Advertisements
Track Severe Weather on mobile